sensor_id;sensor_type;location;lat;lon;timestamp;temperature;humidity
20915;DHT22;10617;52.032;5.298;2023-07-24T00:01:30;19.10;99.90
20915;DHT22;10617;52.032;5.298;2023-07-24T00:05:32;19.10;99.90
20915;DHT22;10617;52.032;5.298;2023-07-24T00:09:33;19.10;99.90
20915;DHT22;10617;52.032;5.298;2023-07-24T00:13:35;19.00;99.90
20915;DHT22;10617;52.032;5.298;2023-07-24T00:17:37;19.00;99.90
20915;DHT22;10617;52.032;5.298;2023-07-24T00:21:38;18.90;99.90
20915;DHT22;10617;52.032;5.298;2023-07-24T00:25:40;18.90;99.90
20915;DHT22;10617;52.032;5.298;2023-07-24T00:29:42;18.90;99.90
20915;DHT22;10617;52.032;5.298;2023-07-24T00:33:43;18.90;99.90
20915;DHT22;10617;52.032;5.298;2023-07-24T00:37:45;18.90;99.90
20915;DHT22;10617;52.032;5.298;2023-07-24T00:41:47;18.90;99.90
20915;DHT22;10617;52.032;5.298;2023-07-24T00:45:48;18.90;99.90
20915;DHT22;10617;52.032;5.298;2023-07-24T00:49:50;19.00;99.90
20915;DHT22;10617;52.032;5.298;2023-07-24T00:53:52;19.00;99.90
20915;DHT22;10617;52.032;5.298;2023-07-24T00:57:54;19.00;99.90
20915;DHT22;10617;52.032;5.298;2023-07-24T01:01:56;19.00;99.90
20915;DHT22;10617;52.032;5.298;2023-07-24T01:05:58;19.00;99.90
20915;DHT22;10617;52.032;5.298;2023-07-24T01:10:00;19.00;99.90
20915;DHT22;10617;52.032;5.298;2023-07-24T01:14:04;19.00;99.90
20915;DHT22;10617;52.032;5.298;2023-07-24T01:18:12;19.00;99.90
20915;DHT22;10617;52.032;5.298;2023-07-24T01:26:16;19.10;99.90
20915;DHT22;10617;52.032;5.298;2023-07-24T01:30:19;19.10;99.90
20915;DHT22;10617;52.032;5.298;2023-07-24T01:34:20;19.00;99.90
20915;DHT22;10617;52.032;5.298;2023-07-24T01:38:25;19.10;99.90
20915;DHT22;10617;52.032;5.298;2023-07-24T01:42:28;19.10;99.90
20915;DHT22;10617;52.032;5.298;2023-07-24T01:46:30;19.10;99.90
20915;DHT22;10617;52.032;5.298;2023-07-24T01:50:31;19.10;99.90
20915;DHT22;10617;52.032;5.298;2023-07-24T01:54:33;19.00;99.90
20915;DHT22;10617;52.032;5.298;2023-07-24T01:58:35;19.00;99.90
20915;DHT22;10617;52.032;5.298;2023-07-24T02:02:36;19.00;99.90
20915;DHT22;10617;52.032;5.298;2023-07-24T02:06:38;18.90;99.90
20915;DHT22;10617;52.032;5.298;2023-07-24T02:10:40;18.90;99.90
20915;DHT22;10617;52.032;5.298;2023-07-24T02:14:41;18.90;99.90
20915;DHT22;10617;52.032;5.298;2023-07-24T02:18:43;18.90;99.90
20915;DHT22;10617;52.032;5.298;2023-07-24T02:22:45;18.80;99.90
20915;DHT22;10617;52.032;5.298;2023-07-24T02:26:46;18.80;99.90
20915;DHT22;10617;52.032;5.298;2023-07-24T02:30:48;18.80;99.90
20915;DHT22;10617;52.032;5.298;2023-07-24T02:34:50;18.80;99.90
20915;DHT22;10617;52.032;5.298;2023-07-24T02:38:52;18.80;99.90
20915;DHT22;10617;52.032;5.298;2023-07-24T02:42:54;18.80;99.90
20915;DHT22;10617;52.032;5.298;2023-07-24T02:46:55;18.80;99.90
20915;DHT22;10617;52.032;5.298;2023-07-24T02:50:57;18.80;99.90
20915;DHT22;10617;52.032;5.298;2023-07-24T02:54:59;18.80;99.90
20915;DHT22;10617;52.032;5.298;2023-07-24T02:59:00;18.80;99.90
20915;DHT22;10617;52.032;5.298;2023-07-24T03:03:02;18.80;99.90
20915;DHT22;10617;52.032;5.298;2023-07-24T03:07:04;18.80;99.90
20915;DHT22;10617;52.032;5.298;2023-07-24T03:11:05;18.80;99.90
20915;DHT22;10617;52.032;5.298;2023-07-24T03:15:07;18.70;99.90
20915;DHT22;10617;52.032;5.298;2023-07-24T03:19:09;18.70;99.90
20915;DHT22;10617;52.032;5.298;2023-07-24T03:23:10;18.70;99.90
20915;DHT22;10617;52.032;5.298;2023-07-24T03:27:12;18.70;99.90
20915;DHT22;10617;52.032;5.298;2023-07-24T03:31:14;18.70;99.90
20915;DHT22;10617;52.032;5.298;2023-07-24T03:35:16;18.70;99.90
20915;DHT22;10617;52.032;5.298;2023-07-24T03:39:18;18.60;99.90
20915;DHT22;10617;52.032;5.298;2023-07-24T03:43:19;18.60;99.90
20915;DHT22;10617;52.032;5.298;2023-07-24T03:47:21;18.50;99.90
20915;DHT22;10617;52.032;5.298;2023-07-24T03:51:23;18.50;99.90
20915;DHT22;10617;52.032;5.298;2023-07-24T03:55:24;18.40;99.90
20915;DHT22;10617;52.032;5.298;2023-07-24T03:59:26;18.40;99.90
20915;DHT22;10617;52.032;5.298;2023-07-24T04:03:28;18.40;99.90
20915;DHT22;10617;52.032;5.298;2023-07-24T04:07:30;18.30;99.90
20915;DHT22;10617;52.032;5.298;2023-07-24T04:11:31;18.30;99.90
20915;DHT22;10617;52.032;5.298;2023-07-24T04:15:33;18.20;99.90
20915;DHT22;10617;52.032;5.298;2023-07-24T04:19:34;18.20;99.90
20915;DHT22;10617;52.032;5.298;2023-07-24T04:23:36;18.10;99.90
20915;DHT22;10617;52.032;5.298;2023-07-24T04:27:38;18.10;99.90
20915;DHT22;10617;52.032;5.298;2023-07-24T04:31:40;18.10;99.90
20915;DHT22;10617;52.032;5.298;2023-07-24T04:35:42;18.10;99.90
20915;DHT22;10617;52.032;5.298;2023-07-24T04:39:43;18.10;99.90
20915;DHT22;10617;52.032;5.298;2023-07-24T04:43:45;18.10;99.90
20915;DHT22;10617;52.032;5.298;2023-07-24T04:47:47;18.10;99.90
20915;DHT22;10617;52.032;5.298;2023-07-24T04:51:49;18.10;99.90
20915;DHT22;10617;52.032;5.298;2023-07-24T04:55:50;18.10;99.90
20915;DHT22;10617;52.032;5.298;2023-07-24T04:59:52;18.00;99.90
20915;DHT22;10617;52.032;5.298;2023-07-24T05:03:54;18.00;99.90
20915;DHT22;10617;52.032;5.298;2023-07-24T05:07:55;18.00;99.90
20915;DHT22;10617;52.032;5.298;2023-07-24T05:11:57;18.00;99.90
20915;DHT22;10617;52.032;5.298;2023-07-24T05:15:59;18.00;99.90
20915;DHT22;10617;52.032;5.298;2023-07-24T05:20:00;18.00;99.90
20915;DHT22;10617;52.032;5.298;2023-07-24T05:24:02;18.00;99.90
20915;DHT22;10617;52.032;5.298;2023-07-24T05:28:04;18.00;99.90
20915;DHT22;10617;52.032;5.298;2023-07-24T05:32:05;18.00;99.90
20915;DHT22;10617;52.032;5.298;2023-07-24T05:36:07;18.00;99.90
20915;DHT22;10617;52.032;5.298;2023-07-24T05:40:09;18.00;99.90
20915;DHT22;10617;52.032;5.298;2023-07-24T05:44:11;18.10;99.90
20915;DHT22;10617;52.032;5.298;2023-07-24T05:48:12;18.10;99.90
20915;DHT22;10617;52.032;5.298;2023-07-24T05:52:14;18.10;99.90
20915;DHT22;10617;52.032;5.298;2023-07-24T05:56:15;18.10;99.90
20915;DHT22;10617;52.032;5.298;2023-07-24T06:00:17;18.10;99.90
20915;DHT22;10617;52.032;5.298;2023-07-24T06:04:19;18.10;99.90
20915;DHT22;10617;52.032;5.298;2023-07-24T06:08:21;18.10;99.90
20915;DHT22;10617;52.032;5.298;2023-07-24T06:12:23;18.20;99.90
20915;DHT22;10617;52.032;5.298;2023-07-24T06:16:25;18.30;99.90
20915;DHT22;10617;52.032;5.298;2023-07-24T06:20:26;18.30;99.90
20915;DHT22;10617;52.032;5.298;2023-07-24T06:24:28;18.40;99.90
20915;DHT22;10617;52.032;5.298;2023-07-24T06:28:30;18.30;99.90
20915;DHT22;10617;52.032;5.298;2023-07-24T06:32:32;18.30;99.90
20915;DHT22;10617;52.032;5.298;2023-07-24T06:36:34;18.30;99.90
20915;DHT22;10617;52.032;5.298;2023-07-24T06:40:36;18.30;99.90
20915;DHT22;10617;52.032;5.298;2023-07-24T06:44:38;18.40;99.90
20915;DHT22;10617;52.032;5.298;2023-07-24T06:48:39;18.40;99.90
20915;DHT22;10617;52.032;5.298;2023-07-24T06:52:41;18.50;99.90
20915;DHT22;10617;52.032;5.298;2023-07-24T06:56:45;18.50;99.90
20915;DHT22;10617;52.032;5.298;2023-07-24T07:00:46;18.60;99.90
20915;DHT22;10617;52.032;5.298;2023-07-24T07:04:48;18.80;99.90
20915;DHT22;10617;52.032;5.298;2023-07-24T07:08:50;18.90;99.90
20915;DHT22;10617;52.032;5.298;2023-07-24T07:12:51;19.00;99.90
20915;DHT22;10617;52.032;5.298;2023-07-24T07:16:53;18.90;99.90
20915;DHT22;10617;52.032;5.298;2023-07-24T07:20:55;19.00;99.90
20915;DHT22;10617;52.032;5.298;2023-07-24T07:24:56;19.10;99.90
20915;DHT22;10617;52.032;5.298;2023-07-24T07:28:58;19.10;99.90
20915;DHT22;10617;52.032;5.298;2023-07-24T07:33:00;19.10;99.90
20915;DHT22;10617;52.032;5.298;2023-07-24T07:37:02;19.10;99.90
20915;DHT22;10617;52.032;5.298;2023-07-24T07:41:04;19.00;99.90
20915;DHT22;10617;52.032;5.298;2023-07-24T07:45:05;19.00;99.90
20915;DHT22;10617;52.032;5.298;2023-07-24T07:49:07;18.90;99.90
20915;DHT22;10617;52.032;5.298;2023-07-24T07:53:09;18.90;99.90
20915;DHT22;10617;52.032;5.298;2023-07-24T07:57:10;18.90;99.90
20915;DHT22;10617;52.032;5.298;2023-07-24T08:01:12;18.90;99.90
20915;DHT22;10617;52.032;5.298;2023-07-24T08:05:14;18.90;99.90
20915;DHT22;10617;52.032;5.298;2023-07-24T08:09:21;19.00;99.90
20915;DHT22;10617;52.032;5.298;2023-07-24T08:13:25;19.00;99.90
20915;DHT22;10617;52.032;5.298;2023-07-24T08:17:27;19.10;99.90
20915;DHT22;10617;52.032;5.298;2023-07-24T08:21:28;19.20;99.90
20915;DHT22;10617;52.032;5.298;2023-07-24T08:25:30;19.20;99.90
20915;DHT22;10617;52.032;5.298;2023-07-24T08:29:32;19.30;99.90
20915;DHT22;10617;52.032;5.298;2023-07-24T08:33:34;19.20;99.90
20915;DHT22;10617;52.032;5.298;2023-07-24T08:37:36;19.20;99.90
20915;DHT22;10617;52.032;5.298;2023-07-24T08:41:38;19.20;99.90
20915;DHT22;10617;52.032;5.298;2023-07-24T08:45:39;19.20;99.90
20915;DHT22;10617;52.032;5.298;2023-07-24T08:49:41;19.10;99.90
20915;DHT22;10617;52.032;5.298;2023-07-24T08:53:43;19.10;99.90
20915;DHT22;10617;52.032;5.298;2023-07-24T08:57:45;19.10;99.90
20915;DHT22;10617;52.032;5.298;2023-07-24T09:01:47;19.20;99.90
20915;DHT22;10617;52.032;5.298;2023-07-24T09:05:48;19.40;99.90
20915;DHT22;10617;52.032;5.298;2023-07-24T09:09:50;19.60;99.90
20915;DHT22;10617;52.032;5.298;2023-07-24T09:13:52;19.60;99.90
20915;DHT22;10617;52.032;5.298;2023-07-24T09:17:55;19.50;99.90
20915;DHT22;10617;52.032;5.298;2023-07-24T09:37:09;19.30;99.90
20915;DHT22;10617;52.032;5.298;2023-07-24T09:41:11;19.20;99.90
20915;DHT22;10617;52.032;5.298;2023-07-24T09:45:15;19.30;99.90
20915;DHT22;10617;52.032;5.298;2023-07-24T09:49:16;19.30;99.90
20915;DHT22;10617;52.032;5.298;2023-07-24T09:57:38;19.50;99.90
20915;DHT22;10617;52.032;5.298;2023-07-24T10:01:40;19.60;99.90
20915;DHT22;10617;52.032;5.298;2023-07-24T10:05:44;19.60;99.90
20915;DHT22;10617;52.032;5.298;2023-07-24T10:09:46;19.60;99.90
20915;DHT22;10617;52.032;5.298;2023-07-24T10:13:48;19.70;99.90
20915;DHT22;10617;52.032;5.298;2023-07-24T10:18:00;19.80;99.90
20915;DHT22;10617;52.032;5.298;2023-07-24T10:22:02;19.90;99.90
20915;DHT22;10617;52.032;5.298;2023-07-24T10:26:05;19.90;99.90
20915;DHT22;10617;52.032;5.298;2023-07-24T10:30:06;19.70;99.90
20915;DHT22;10617;52.032;5.298;2023-07-24T10:34:23;19.60;99.90
20915;DHT22;10617;52.032;5.298;2023-07-24T10:38:33;19.70;99.90
20915;DHT22;10617;52.032;5.298;2023-07-24T10:42:36;19.70;99.90
20915;DHT22;10617;52.032;5.298;2023-07-24T10:46:41;19.80;99.90
20915;DHT22;10617;52.032;5.298;2023-07-24T10:50:46;19.90;99.90
20915;DHT22;10617;52.032;5.298;2023-07-24T10:54:52;20.10;99.90
20915;DHT22;10617;52.032;5.298;2023-07-24T10:58:53;20.00;99.90
20915;DHT22;10617;52.032;5.298;2023-07-24T11:02:55;20.00;99.90
20915;DHT22;10617;52.032;5.298;2023-07-24T11:06:57;19.90;99.90
20915;DHT22;10617;52.032;5.298;2023-07-24T11:10:59;19.90;99.90
20915;DHT22;10617;52.032;5.298;2023-07-24T11:15:02;19.90;99.90
20915;DHT22;10617;52.032;5.298;2023-07-24T11:19:04;20.00;99.90
20915;DHT22;10617;52.032;5.298;2023-07-24T11:23:05;20.10;99.90
20915;DHT22;10617;52.032;5.298;2023-07-24T11:27:13;20.30;99.90
20915;DHT22;10617;52.032;5.298;2023-07-24T11:31:16;20.40;99.90
20915;DHT22;10617;52.032;5.298;2023-07-24T11:35:21;20.40;99.90
20915;DHT22;10617;52.032;5.298;2023-07-24T11:39:23;20.40;99.90
20915;DHT22;10617;52.032;5.298;2023-07-24T11:43:25;20.40;99.90
20915;DHT22;10617;52.032;5.298;2023-07-24T11:47:27;20.30;99.90
20915;DHT22;10617;52.032;5.298;2023-07-24T11:51:30;20.20;99.90
20915;DHT22;10617;52.032;5.298;2023-07-24T11:55:35;20.10;99.90
20915;DHT22;10617;52.032;5.298;2023-07-24T11:59:37;20.00;99.90
20915;DHT22;10617;52.032;5.298;2023-07-24T12:03:39;19.90;99.90
20915;DHT22;10617;52.032;5.298;2023-07-24T12:07:42;19.90;99.90
20915;DHT22;10617;52.032;5.298;2023-07-24T12:11:45;19.90;99.90
20915;DHT22;10617;52.032;5.298;2023-07-24T12:15:47;19.90;99.90
20915;DHT22;10617;52.032;5.298;2023-07-24T12:19:49;20.00;99.90
20915;DHT22;10617;52.032;5.298;2023-07-24T12:23:51;20.10;99.90
20915;DHT22;10617;52.032;5.298;2023-07-24T12:27:52;20.10;99.90
20915;DHT22;10617;52.032;5.298;2023-07-24T12:31:54;20.20;99.90
20915;DHT22;10617;52.032;5.298;2023-07-24T12:35:56;20.20;99.90
20915;DHT22;10617;52.032;5.298;2023-07-24T12:39:57;20.40;99.90
20915;DHT22;10617;52.032;5.298;2023-07-24T12:43:59;20.40;99.90
20915;DHT22;10617;52.032;5.298;2023-07-24T12:48:01;20.40;99.90
20915;DHT22;10617;52.032;5.298;2023-07-24T12:52:03;20.40;99.90
20915;DHT22;10617;52.032;5.298;2023-07-24T12:56:05;20.40;99.90
20915;DHT22;10617;52.032;5.298;2023-07-24T13:00:07;20.40;99.90
20915;DHT22;10617;52.032;5.298;2023-07-24T13:04:10;20.50;99.90
20915;DHT22;10617;52.032;5.298;2023-07-24T13:08:12;20.70;99.90
20915;DHT22;10617;52.032;5.298;2023-07-24T13:12:13;21.00;99.90
20915;DHT22;10617;52.032;5.298;2023-07-24T13:16:15;21.00;99.90
20915;DHT22;10617;52.032;5.298;2023-07-24T13:20:17;20.80;99.90
20915;DHT22;10617;52.032;5.298;2023-07-24T13:24:19;20.60;99.90
20915;DHT22;10617;52.032;5.298;2023-07-24T13:28:21;20.40;99.90
20915;DHT22;10617;52.032;5.298;2023-07-24T13:32:22;20.30;99.90
20915;DHT22;10617;52.032;5.298;2023-07-24T13:36:24;20.10;99.90
20915;DHT22;10617;52.032;5.298;2023-07-24T13:40:26;20.00;99.90
20915;DHT22;10617;52.032;5.298;2023-07-24T13:44:27;19.90;99.90
20915;DHT22;10617;52.032;5.298;2023-07-24T13:48:29;19.80;99.90
20915;DHT22;10617;52.032;5.298;2023-07-24T13:52:31;19.80;99.90
20915;DHT22;10617;52.032;5.298;2023-07-24T13:56:33;19.80;99.90
20915;DHT22;10617;52.032;5.298;2023-07-24T14:00:37;19.80;99.90
20915;DHT22;10617;52.032;5.298;2023-07-24T14:04:38;19.70;99.90
20915;DHT22;10617;52.032;5.298;2023-07-24T14:08:40;19.60;99.90
20915;DHT22;10617;52.032;5.298;2023-07-24T14:12:42;19.50;99.90
20915;DHT22;10617;52.032;5.298;2023-07-24T14:16:43;19.40;99.90
20915;DHT22;10617;52.032;5.298;2023-07-24T14:20:45;19.40;99.90
20915;DHT22;10617;52.032;5.298;2023-07-24T14:24:48;19.40;99.90
20915;DHT22;10617;52.032;5.298;2023-07-24T14:28:50;19.40;99.90
20915;DHT22;10617;52.032;5.298;2023-07-24T14:32:53;19.40;99.90
20915;DHT22;10617;52.032;5.298;2023-07-24T14:36:55;19.40;99.90
20915;DHT22;10617;52.032;5.298;2023-07-24T14:40:56;19.50;99.90
20915;DHT22;10617;52.032;5.298;2023-07-24T14:44:58;19.50;99.90
20915;DHT22;10617;52.032;5.298;2023-07-24T14:49:03;19.50;99.90
20915;DHT22;10617;52.032;5.298;2023-07-24T14:53:05;19.60;99.90
20915;DHT22;10617;52.032;5.298;2023-07-24T14:57:06;19.80;99.90
20915;DHT22;10617;52.032;5.298;2023-07-24T15:01:23;19.90;99.90
20915;DHT22;10617;52.032;5.298;2023-07-24T15:05:25;20.10;99.90
20915;DHT22;10617;52.032;5.298;2023-07-24T15:09:27;20.30;99.90
20915;DHT22;10617;52.032;5.298;2023-07-24T15:13:28;20.40;99.90
20915;DHT22;10617;52.032;5.298;2023-07-24T15:17:30;20.50;99.90
20915;DHT22;10617;52.032;5.298;2023-07-24T15:21:31;20.50;99.90
20915;DHT22;10617;52.032;5.298;2023-07-24T15:25:33;20.30;99.90
20915;DHT22;10617;52.032;5.298;2023-07-24T15:29:35;20.20;99.90
20915;DHT22;10617;52.032;5.298;2023-07-24T15:33:37;20.10;99.90
20915;DHT22;10617;52.032;5.298;2023-07-24T15:37:39;20.20;99.90
20915;DHT22;10617;52.032;5.298;2023-07-24T15:41:40;20.30;99.90
20915;DHT22;10617;52.032;5.298;2023-07-24T15:45:42;20.20;99.90
20915;DHT22;10617;52.032;5.298;2023-07-24T15:49:44;20.30;99.90
20915;DHT22;10617;52.032;5.298;2023-07-24T15:53:45;20.40;99.90
20915;DHT22;10617;52.032;5.298;2023-07-24T15:57:47;20.50;99.90
20915;DHT22;10617;52.032;5.298;2023-07-24T16:01:49;20.80;99.90
20915;DHT22;10617;52.032;5.298;2023-07-24T16:05:52;21.10;99.90
20915;DHT22;10617;52.032;5.298;2023-07-24T16:09:53;21.00;99.90
20915;DHT22;10617;52.032;5.298;2023-07-24T16:13:55;20.70;99.90
20915;DHT22;10617;52.032;5.298;2023-07-24T16:17:57;20.30;99.90
20915;DHT22;10617;52.032;5.298;2023-07-24T16:22:01;20.00;99.90
20915;DHT22;10617;52.032;5.298;2023-07-24T16:31:09;19.50;99.90
20915;DHT22;10617;52.032;5.298;2023-07-24T16:35:11;19.20;99.90
20915;DHT22;10617;52.032;5.298;2023-07-24T16:39:13;19.10;99.90
20915;DHT22;10617;52.032;5.298;2023-07-24T16:43:15;19.10;99.90
20915;DHT22;10617;52.032;5.298;2023-07-24T16:47:16;19.10;99.90
20915;DHT22;10617;52.032;5.298;2023-07-24T16:51:18;19.20;99.90
20915;DHT22;10617;52.032;5.298;2023-07-24T16:55:20;19.30;99.90
20915;DHT22;10617;52.032;5.298;2023-07-24T16:59:21;19.40;99.90
20915;DHT22;10617;52.032;5.298;2023-07-24T17:03:24;19.20;99.90
20915;DHT22;10617;52.032;5.298;2023-07-24T17:07:26;19.10;99.90
20915;DHT22;10617;52.032;5.298;2023-07-24T17:11:27;18.90;99.90
20915;DHT22;10617;52.032;5.298;2023-07-24T17:15:29;18.80;99.90
20915;DHT22;10617;52.032;5.298;2023-07-24T17:19:31;18.80;99.90
20915;DHT22;10617;52.032;5.298;2023-07-24T17:23:33;18.70;99.90
20915;DHT22;10617;52.032;5.298;2023-07-24T17:27:34;18.80;99.90
20915;DHT22;10617;52.032;5.298;2023-07-24T17:31:38;18.80;99.90
20915;DHT22;10617;52.032;5.298;2023-07-24T17:35:43;18.80;99.90
20915;DHT22;10617;52.032;5.298;2023-07-24T17:39:45;18.90;99.90
20915;DHT22;10617;52.032;5.298;2023-07-24T17:43:47;19.00;99.90
20915;DHT22;10617;52.032;5.298;2023-07-24T17:47:48;19.20;99.90
20915;DHT22;10617;52.032;5.298;2023-07-24T17:51:50;19.30;99.90
20915;DHT22;10617;52.032;5.298;2023-07-24T17:55:52;19.40;99.90
20915;DHT22;10617;52.032;5.298;2023-07-24T17:59:53;19.40;99.90
20915;DHT22;10617;52.032;5.298;2023-07-24T18:03:55;19.40;99.90
20915;DHT22;10617;52.032;5.298;2023-07-24T18:07:57;19.30;99.90
20915;DHT22;10617;52.032;5.298;2023-07-24T18:11:58;19.20;99.90
20915;DHT22;10617;52.032;5.298;2023-07-24T18:16:00;19.10;99.90
20915;DHT22;10617;52.032;5.298;2023-07-24T18:20:02;19.10;99.90
20915;DHT22;10617;52.032;5.298;2023-07-24T18:24:05;19.00;99.90
20915;DHT22;10617;52.032;5.298;2023-07-24T18:28:06;18.90;99.90
20915;DHT22;10617;52.032;5.298;2023-07-24T18:32:08;18.90;99.90
20915;DHT22;10617;52.032;5.298;2023-07-24T18:36:10;18.90;99.90
20915;DHT22;10617;52.032;5.298;2023-07-24T18:40:12;18.80;99.90
20915;DHT22;10617;52.032;5.298;2023-07-24T18:44:14;18.80;99.90
20915;DHT22;10617;52.032;5.298;2023-07-24T18:48:16;18.70;99.90
20915;DHT22;10617;52.032;5.298;2023-07-24T18:52:17;18.60;99.90
20915;DHT22;10617;52.032;5.298;2023-07-24T18:56:19;18.50;99.90
20915;DHT22;10617;52.032;5.298;2023-07-24T19:00:21;18.40;99.90
20915;DHT22;10617;52.032;5.298;2023-07-24T19:04:22;18.30;99.90
20915;DHT22;10617;52.032;5.298;2023-07-24T19:08:24;18.30;99.90
20915;DHT22;10617;52.032;5.298;2023-07-24T19:12:26;18.30;99.90
20915;DHT22;10617;52.032;5.298;2023-07-24T19:16:27;18.30;99.90
20915;DHT22;10617;52.032;5.298;2023-07-24T19:20:29;18.30;99.90
20915;DHT22;10617;52.032;5.298;2023-07-24T19:24:32;18.30;99.90
20915;DHT22;10617;52.032;5.298;2023-07-24T19:28:33;18.20;99.90
20915;DHT22;10617;52.032;5.298;2023-07-24T19:32:35;18.10;99.90
20915;DHT22;10617;52.032;5.298;2023-07-24T19:36:41;18.10;99.90
20915;DHT22;10617;52.032;5.298;2023-07-24T19:40:42;18.00;99.90
20915;DHT22;10617;52.032;5.298;2023-07-24T19:44:44;18.00;99.90
20915;DHT22;10617;52.032;5.298;2023-07-24T19:48:46;18.00;99.90
20915;DHT22;10617;52.032;5.298;2023-07-24T19:52:47;17.90;99.90
20915;DHT22;10617;52.032;5.298;2023-07-24T19:56:50;17.90;99.90
20915;DHT22;10617;52.032;5.298;2023-07-24T20:00:52;17.90;99.90
20915;DHT22;10617;52.032;5.298;2023-07-24T20:04:55;17.90;99.90
20915;DHT22;10617;52.032;5.298;2023-07-24T20:08:56;17.90;99.90
20915;DHT22;10617;52.032;5.298;2023-07-24T20:12:58;17.90;99.90
20915;DHT22;10617;52.032;5.298;2023-07-24T20:17:00;17.90;99.90
20915;DHT22;10617;52.032;5.298;2023-07-24T20:21:01;17.90;99.90
20915;DHT22;10617;52.032;5.298;2023-07-24T20:25:03;17.90;99.90
20915;DHT22;10617;52.032;5.298;2023-07-24T20:29:05;17.90;99.90
20915;DHT22;10617;52.032;5.298;2023-07-24T20:33:06;17.80;99.90
20915;DHT22;10617;52.032;5.298;2023-07-24T20:37:08;17.80;99.90
20915;DHT22;10617;52.032;5.298;2023-07-24T20:41:10;17.70;99.90
20915;DHT22;10617;52.032;5.298;2023-07-24T20:45:13;17.70;99.90
20915;DHT22;10617;52.032;5.298;2023-07-24T20:49:15;17.60;99.90
20915;DHT22;10617;52.032;5.298;2023-07-24T20:53:17;17.50;99.90
20915;DHT22;10617;52.032;5.298;2023-07-24T20:57:18;17.50;99.90
20915;DHT22;10617;52.032;5.298;2023-07-24T21:01:20;17.40;99.90
20915;DHT22;10617;52.032;5.298;2023-07-24T21:05:24;17.30;99.90
20915;DHT22;10617;52.032;5.298;2023-07-24T21:09:26;17.20;99.90
20915;DHT22;10617;52.032;5.298;2023-07-24T21:13:27;17.20;99.90
20915;DHT22;10617;52.032;5.298;2023-07-24T21:17:29;17.20;99.90
20915;DHT22;10617;52.032;5.298;2023-07-24T21:21:31;17.10;99.90
20915;DHT22;10617;52.032;5.298;2023-07-24T21:25:33;17.10;99.90
20915;DHT22;10617;52.032;5.298;2023-07-24T21:29:34;17.00;99.90
20915;DHT22;10617;52.032;5.298;2023-07-24T21:33:36;17.00;99.90
20915;DHT22;10617;52.032;5.298;2023-07-24T21:37:38;17.00;99.90
20915;DHT22;10617;52.032;5.298;2023-07-24T21:41:41;16.90;99.90
20915;DHT22;10617;52.032;5.298;2023-07-24T21:45:43;16.90;99.90
20915;DHT22;10617;52.032;5.298;2023-07-24T21:49:45;16.80;99.90
20915;DHT22;10617;52.032;5.298;2023-07-24T21:53:46;16.70;99.90
20915;DHT22;10617;52.032;5.298;2023-07-24T21:57:48;16.60;99.90
20915;DHT22;10617;52.032;5.298;2023-07-24T22:01:50;16.50;99.90
20915;DHT22;10617;52.032;5.298;2023-07-24T22:05:51;16.40;99.90
20915;DHT22;10617;52.032;5.298;2023-07-24T22:09:53;16.40;99.90
20915;DHT22;10617;52.032;5.298;2023-07-24T22:13:55;16.30;99.90
20915;DHT22;10617;52.032;5.298;2023-07-24T22:33:06;15.90;99.90
20915;DHT22;10617;52.032;5.298;2023-07-24T22:37:07;15.80;99.90
20915;DHT22;10617;52.032;5.298;2023-07-24T22:41:12;15.70;99.90
20915;DHT22;10617;52.032;5.298;2023-07-24T22:45:14;15.70;99.90
20915;DHT22;10617;52.032;5.298;2023-07-24T22:49:16;15.60;99.90
20915;DHT22;10617;52.032;5.298;2023-07-24T22:53:17;15.50;99.90
20915;DHT22;10617;52.032;5.298;2023-07-24T22:57:19;15.40;99.90
20915;DHT22;10617;52.032;5.298;2023-07-24T23:01:24;15.40;99.90
20915;DHT22;10617;52.032;5.298;2023-07-24T23:05:26;15.30;99.90
20915;DHT22;10617;52.032;5.298;2023-07-24T23:09:28;15.30;99.90
20915;DHT22;10617;52.032;5.298;2023-07-24T23:13:29;15.20;99.90
20915;DHT22;10617;52.032;5.298;2023-07-24T23:17:31;15.10;99.90
20915;DHT22;10617;52.032;5.298;2023-07-24T23:21:33;15.00;99.90
20915;DHT22;10617;52.032;5.298;2023-07-24T23:25:35;15.00;99.90
20915;DHT22;10617;52.032;5.298;2023-07-24T23:29:36;15.00;99.90
20915;DHT22;10617;52.032;5.298;2023-07-24T23:33:38;14.90;99.90
20915;DHT22;10617;52.032;5.298;2023-07-24T23:37:40;14.90;99.90
20915;DHT22;10617;52.032;5.298;2023-07-24T23:41:41;14.80;99.90
20915;DHT22;10617;52.032;5.298;2023-07-24T23:45:43;14.80;99.90
20915;DHT22;10617;52.032;5.298;2023-07-24T23:49:45;14.70;99.90
20915;DHT22;10617;52.032;5.298;2023-07-24T23:53:47;14.70;99.90
20915;DHT22;10617;52.032;5.298;2023-07-24T23:57:49;14.60;99.90
